Estación de Pirque
Ultimos registro cada 15 minutos 49
| N° | Estación | Fecha / Hora | Temperatura | Humedad | Lluvia | Velocidad | Dirección | Radiación | Presion |
| 49 | Pirque | 08-05-2026 12:00 | 16,7 | 56,7 | 0 | 0 | 284 | 593,1 | 942 |
| 48 | Pirque | 08-05-2026 11:45 | 15,7 | 62,1 | 0 | 0 | 284 | 571,9 | 941,8 |
| 47 | Pirque | 08-05-2026 11:30 | 15,2 | 63,1 | 0 | 0 | 267 | 569,4 | 941,7 |
| 46 | Pirque | 08-05-2026 11:15 | 15,8 | 63,3 | 0 | 0 | 271 | 548,1 | 942,1 |
| 45 | Pirque | 08-05-2026 11:00 | 15,7 | 64,3 | 0 | 0 | 264 | 520,6 | 942,4 |
| 44 | Pirque | 08-05-2026 10:45 | 14,2 | 69,3 | 0 | 0 | 268 | 498,1 | 942,2 |
| 43 | Pirque | 08-05-2026 10:30 | 14,5 | 69 | 0 | 0 | 254 | 464,4 | 942,4 |
| 42 | Pirque | 08-05-2026 10:15 | 13,8 | 73,5 | 0 | 0 | 244 | 434,4 | 942,7 |
| 41 | Pirque | 08-05-2026 10:00 | 13 | 72,9 | 0 | 0 | 278 | 396,9 | 942,6 |
| 40 | Pirque | 08-05-2026 09:45 | 12,6 | 78,2 | 0 | 0 | 278 | 351,9 | 942,6 |
| 39 | Pirque | 08-05-2026 09:30 | 12,1 | 81,5 | 0 | 0 | 278 | 311,9 | 942,5 |
| 38 | Pirque | 08-05-2026 09:15 | 11,8 | 87,8 | 0 | 0 | 278 | 276,9 | 942,9 |
| 37 | Pirque | 08-05-2026 09:00 | 8,8 | 95,4 | 0 | 0 | 278 | 236,9 | 943 |
| 36 | Pirque | 08-05-2026 08:45 | 6,9 | 96,4 | 0 | 0 | 271 | 205,6 | 943,1 |
| 35 | Pirque | 08-05-2026 08:30 | 5,4 | 97,5 | 0 | 0 | 279 | 164,4 | 943,1 |
| 34 | Pirque | 08-05-2026 08:15 | 3,9 | 97,5 | 0 | 0 | 274 | 121,9 | 942,9 |
| 33 | Pirque | 08-05-2026 08:00 | 2,8 | 97,6 | 0 | 0 | 271 | 70,6 | 943 |
| 32 | Pirque | 08-05-2026 07:45 | 0,8 | 97,7 | 0 | 0 | 271 | 10,6 | 942,8 |
| 31 | Pirque | 08-05-2026 07:30 | 0,4 | 97,6 | 0 | 0 | 271 | 4,4 | 942,9 |
| 30 | Pirque | 08-05-2026 07:15 | 0,7 | 97,7 | 0 | 0 | 271 | 0,6 | 942,9 |
| 29 | Pirque | 08-05-2026 07:00 | 1 | 97,5 | 0 | 0 | 271 | 0,6 | 943,1 |
| 28 | Pirque | 08-05-2026 06:45 | 1,6 | 97,7 | 0 | 0 | 271 | 0,6 | 943,2 |
| 27 | Pirque | 08-05-2026 06:30 | 2,1 | 97,6 | 0 | 0 | 271 | 0,6 | 943,2 |
| 26 | Pirque | 08-05-2026 06:15 | 1,6 | 97,3 | 0 | 0 | 271 | 0,6 | 943,2 |
| 25 | Pirque | 08-05-2026 06:00 | 2 | 97,2 | 0 | 0 | 271 | 0,6 | 942,9 |
| 24 | Pirque | 08-05-2026 05:45 | 2,6 | 97,4 | 0 | 0 | 271 | 0,6 | 942,8 |
| 23 | Pirque | 08-05-2026 05:30 | 2,4 | 97,3 | 0 | 0 | 271 | 0,6 | 942,6 |
| 22 | Pirque | 08-05-2026 05:15 | 2,7 | 97,4 | 0 | 0 | 271 | 0,6 | 942,6 |
| 21 | Pirque | 08-05-2026 05:00 | 2,5 | 97,1 | 0 | 0 | 271 | 0,6 | 942,4 |
| 20 | Pirque | 08-05-2026 04:45 | 2,3 | 96,9 | 0 | 0 | 271 | 0,6 | 942,2 |
| 19 | Pirque | 08-05-2026 04:30 | 3,5 | 96,8 | 0 | 0 | 271 | 0,6 | 942,4 |
| 18 | Pirque | 08-05-2026 04:15 | 4,2 | 96,9 | 0 | 0 | 271 | 0,6 | 942,4 |
| 17 | Pirque | 08-05-2026 04:00 | 3,7 | 96,5 | 0 | 0 | 271 | 0,6 | 942,6 |
| 16 | Pirque | 08-05-2026 03:45 | 4,3 | 96,5 | 0 | 0 | 271 | 0,6 | 943,1 |
| 15 | Pirque | 08-05-2026 03:30 | 5 | 96,4 | 0 | 0 | 271 | 0,6 | 943,1 |
| 14 | Pirque | 08-05-2026 03:15 | 4,8 | 95,9 | 0 | 0 | 271 | 0,6 | 943,3 |
| 13 | Pirque | 08-05-2026 03:00 | 5,1 | 96 | 0 | 0 | 272 | 0,6 | 943,6 |
| 12 | Pirque | 08-05-2026 02:45 | 5,5 | 95,8 | 0 | 0 | 277 | 0,6 | 943,4 |
| 11 | Pirque | 08-05-2026 02:30 | 5,7 | 95,5 | 0 | 0 | 277 | 0,6 | 943,5 |
| 10 | Pirque | 08-05-2026 02:15 | 6,8 | 95,3 | 0 | 0 | 272 | 0,6 | 943,7 |
| 9 | Pirque | 08-05-2026 02:00 | 6,9 | 94,9 | 0 | 0 | 271 | 0,6 | 944 |
| 8 | Pirque | 08-05-2026 01:45 | 6,9 | 94,1 | 0 | 0 | 271 | 0,6 | 943,8 |
| 7 | Pirque | 08-05-2026 01:30 | 7,9 | 94 | 0 | 0 | 275 | 0,6 | 944 |
| 6 | Pirque | 08-05-2026 01:15 | 8,7 | 93,5 | 0 | 0 | 271 | 0,6 | 944 |
| 5 | Pirque | 08-05-2026 01:00 | 9 | 93,4 | 0 | 0 | 271 | 0,6 | 944,2 |
| 4 | Pirque | 08-05-2026 00:45 | 8,7 | 92,9 | 0 | 0 | 271 | 0,6 | 944,5 |
| 3 | Pirque | 08-05-2026 00:30 | 8,8 | 92,4 | 0 | 0 | 271 | 0,6 | 944,4 |
| 2 | Pirque | 08-05-2026 00:15 | 8,9 | 91,6 | 0 | 0 | 271 | 0,6 | 944,6 |
| 1 | Pirque | 08-05-2026 00:00 | 9,4 | 90,7 | 0 | 0 | 271 | 0,6 | 944,6 |